Time;durP1;ratioP1;P1;durP2;ratioP2;P2;SDS_P1;SDS_P2;PMS_P1;PMS_P2;Temp;Humidity;BMP_temperature;BMP_pressure;BME280_temperature;BME280_humidity;BME280_pressure;Samples;Min_cycle;Max_cycle;Signal;HPM_P1;HPM_P2
2021/05/08 00:00:06;;;;;;;26.97;2.50;;;;;;;14.49;56.71;100109.88;1667546;86;21027;-40
2021/05/08 00:02:34;;;;;;;14.93;2.47;;;;;;;14.47;57.24;100103.88;1667557;85;21058;-41
2021/05/08 00:05:04;;;;;;;12.18;2.15;;;;;;;14.48;58.15;100105.58;1667550;84;20968;-41
2021/05/08 00:07:32;;;;;;;13.58;1.77;;;;;;;14.42;58.47;100098.89;1667549;86;21371;-41
2021/05/08 00:09:59;;;;;;;14.93;2.67;;;;;;;14.39;58.54;100109.39;1667537;86;20980;-41
2021/05/08 00:12:27;;;;;;;29.95;2.40;;;;;;;14.36;58.72;100093.45;1667590;86;21039;-41
2021/05/08 00:14:56;;;;;;;24.55;2.42;;;;;;;14.34;59.80;100086.61;1667498;86;20916;-41
2021/05/08 00:17:24;;;;;;;15.38;2.55;;;;;;;14.27;60.21;100078.66;1667535;86;21027;-41
2021/05/08 00:19:52;;;;;;;17.07;2.35;;;;;;;14.20;60.19;100084.11;1667554;86;21319;-41
2021/05/08 00:22:21;;;;;;;13.60;2.12;;;;;;;14.15;60.17;100069.58;1667404;86;21094;-41
2021/05/08 00:24:49;;;;;;;12.88;2.17;;;;;;;14.11;60.23;100078.42;1667578;85;21031;-41
2021/05/08 00:27:17;;;;;;;12.55;2.02;;;;;;;14.10;60.26;100075.42;1667519;86;20963;-41
2021/05/08 00:29:45;;;;;;;17.90;2.80;;;;;;;14.10;60.32;100070.22;1667569;86;20999;-41
2021/05/08 00:32:15;;;;;;;5.95;1.60;;;;;;;14.10;60.27;100075.42;1667511;86;21233;-42
2021/05/08 00:34:45;;;;;;;11.97;1.87;;;;;;;14.08;60.44;100075.47;1667500;86;21003;-42
2021/05/08 00:37:12;;;;;;;16.45;3.60;;;;;;;14.08;60.64;100075.47;1638644;84;21038;-42
2021/05/08 00:39:41;;;;;;;7.60;1.90;;;;;;;14.08;60.81;100068.96;1667482;86;21035;-42
2021/05/08 00:42:10;;;;;;;21.90;2.30;;;;;;;14.07;61.02;100048.62;1667480;84;20963;-42
2021/05/08 00:44:39;;;;;;;12.00;3.00;;;;;;;14.06;61.23;100052.56;1667651;86;22240;-42
2021/05/08 00:47:07;;;;;;;25.35;3.22;;;;;;;14.04;61.61;100038.77;1667563;86;20987;-42
2021/05/08 00:49:34;;;;;;;14.53;1.95;;;;;;;14.02;62.08;100036.25;1667518;86;21122;-42
2021/05/08 00:52:04;;;;;;;17.35;3.08;;;;;;;13.98;62.29;100033.34;1667482;86;21051;-42
2021/05/08 00:54:33;;;;;;;11.22;2.08;;;;;;;13.96;62.98;100042.97;1638978;86;21003;-42
2021/05/08 00:57:02;;;;;;;37.88;4.05;;;;;;;13.92;63.46;100046.60;1667519;86;21363;-42
2021/05/08 00:59:31;;;;;;;4.00;1.35;;;;;;;13.90;63.64;100026.30;1639521;86;21193;-41
2021/05/08 01:01:59;;;;;;;10.65;1.72;;;;;;;13.86;63.53;100025.56;1667539;86;21046;-42
2021/05/08 01:04:27;;;;;;;18.32;2.00;;;;;;;13.84;63.72;100025.25;1667429;84;20979;-42
2021/05/08 01:06:55;;;;;;;26.75;2.83;;;;;;;13.81;63.62;100009.77;1680861;84;20987;-42
2021/05/08 01:09:25;;;;;;;2.67;1.45;;;;;;;13.79;63.69;100018.91;1706436;84;21220;-42
2021/05/08 01:11:53;;;;;;;8.50;1.62;;;;;;;13.75;63.44;100003.88;1706436;84;21063;-41
2021/05/08 01:14:22;;;;;;;17.07;2.10;;;;;;;13.75;63.23;99997.37;1680890;84;21118;-42
2021/05/08 01:16:51;;;;;;;20.85;2.65;;;;;;;13.74;63.19;99985.27;1706468;84;21074;-41
2021/05/08 01:19:20;;;;;;;16.50;2.42;;;;;;;13.73;63.20;99995.28;1714119;83;21006;-42
2021/05/08 01:21:48;;;;;;;7.92;1.52;;;;;;;13.72;63.29;99997.49;1714144;82;21412;-42
2021/05/08 01:24:16;;;;;;;11.05;1.85;;;;;;;13.70;63.27;99978.97;1714030;83;21236;-42
2021/05/08 01:26:45;;;;;;;15.75;1.57;;;;;;;13.68;63.36;99976.41;1663943;83;21023;-42
2021/05/08 01:29:12;;;;;;;12.20;1.40;;;;;;;13.65;63.56;99989.55;1714009;83;21140;-42
2021/05/08 01:31:40;;;;;;;14.47;1.95;;;;;;;13.64;63.89;99984.81;1714066;83;20920;-41
2021/05/08 01:34:08;;;;;;;10.28;1.82;;;;;;;13.61;64.08;99990.10;1714108;82;21343;-42
2021/05/08 01:36:37;;;;;;;10.98;2.40;;;;;;;13.58;64.14;99981.59;1714029;83;21062;-42
2021/05/08 01:39:06;;;;;;;12.03;2.08;;;;;;;13.56;64.55;99979.03;1714035;83;20983;-42
2021/05/08 01:41:35;;;;;;;17.35;2.40;;;;;;;13.52;64.78;99977.94;1713414;83;21565;-42
2021/05/08 01:44:08;;;;;;;25.75;2.72;;;;;;;13.46;64.98;99966.84;1706170;84;21019;-42
2021/05/08 01:46:33;;;;;;;17.45;1.90;;;;;;;13.43;65.67;99974.76;1706031;84;21212;-42
2021/05/08 01:49:06;;;;;;;10.18;2.60;;;;;;;13.37;65.89;99974.97;1706063;84;21078;-42
2021/05/08 01:51:34;;;;;;;18.55;2.12;;;;;;;13.33;66.23;99973.39;1706238;84;21027;-41
2021/05/08 01:54:02;;;;;;;8.58;1.75;;;;;;;13.29;66.69;99969.22;1706120;82;21023;-42
2021/05/08 01:56:30;;;;;;;7.72;2.17;;;;;;;13.26;66.99;99963.67;1706123;84;20995;-42
2021/05/08 01:59:01;;;;;;;11.65;1.80;;;;;;;13.25;66.98;99966.31;1706071;83;21378;-42
2021/05/08 02:01:30;;;;;;;16.25;2.62;;;;;;;13.22;67.46;99957.73;1706065;84;20952;-42
2021/05/08 02:03:58;;;;;;;13.35;2.90;;;;;;;13.20;67.54;99956.11;1706116;82;21019;-42
2021/05/08 02:06:27;;;;;;;23.42;2.70;;;;;;;13.17;67.58;99940.17;1706082;84;20948;-41
2021/05/08 02:09:12;;;;;;;15.65;2.45;;;;;;;13.15;67.79;99938.55;1704936;83;20983;-41
2021/05/08 02:11:41;;;;;;;38.33;2.77;;;;;;;13.13;68.03;99929.50;1705622;82;21334;-41
2021/05/08 02:14:09;;;;;;;21.37;2.47;;;;;;;13.10;68.34;99923.13;1706147;82;21512;-40
2021/05/08 02:16:38;;;;;;;19.12;3.08;;;;;;;13.10;68.52;99924.42;1706147;83;21560;-41
2021/05/08 02:19:07;;;;;;;14.65;2.45;;;;;;;13.10;68.62;99922.26;1706081;83;20944;-42
2021/05/08 02:21:35;;;;;;;11.00;2.17;;;;;;;13.09;68.72;99920.13;1706127;84;21022;-41
2021/05/08 02:24:05;;;;;;;17.75;2.77;;;;;;;13.11;68.81;99917.45;1706186;82;22291;-41
2021/05/08 02:26:34;;;;;;;23.52;2.83;;;;;;;13.14;68.89;99920.80;1684709;84;21043;-41
2021/05/08 02:29:02;;;;;;;17.05;2.62;;;;;;;13.15;69.09;99904.77;1706135;84;21036;-42
2021/05/08 02:31:32;;;;;;;33.88;2.60;;;;;;;13.16;69.05;99928.55;1706049;83;21030;-42
2021/05/08 02:34:02;;;;;;;25.92;3.37;;;;;;;13.17;69.24;99924.58;1706186;84;21050;-43
2021/05/08 02:36:30;;;;;;;12.88;2.42;;;;;;;13.22;69.27;99924.41;1706245;84;21579;-41
2021/05/08 02:38:58;;;;;;;16.80;2.62;;;;;;;13.25;69.17;99928.62;1706118;84;20958;-42
2021/05/08 02:41:26;;;;;;;25.25;2.52;;;;;;;13.24;69.29;99931.70;1706052;84;20940;-42
2021/05/08 02:43:54;;;;;;;29.55;2.85;;;;;;;13.23;69.25;99932.13;1718246;82;20959;-42
2021/05/08 02:46:22;;;;;;;12.15;2.62;;;;;;;13.22;69.50;99942.13;1719682;83;21654;-41
2021/05/08 02:48:51;;;;;;;9.43;2.17;;;;;;;13.23;69.69;99948.20;1719574;83;21372;-42
2021/05/08 02:51:19;;;;;;;19.95;2.98;;;;;;;13.21;69.71;99950.84;1719594;83;20964;-42
2021/05/08 02:53:48;;;;;;;5.83;2.30;;;;;;;13.21;69.97;99958.64;1719648;83;21030;-42
2021/05/08 02:56:16;;;;;;;4.85;1.95;;;;;;;13.20;70.02;99966.04;1719635;83;20951;-41
2021/05/08 02:58:45;;;;;;;8.90;2.60;;;;;;;13.20;69.95;99959.54;1719671;83;21081;-42
2021/05/08 03:01:13;;;;;;;9.93;2.60;;;;;;;13.19;70.41;99970.84;1719633;83;21379;-42
2021/05/08 03:03:41;;;;;;;13.80;2.80;;;;;;;13.19;70.34;99970.84;1719797;83;21074;-42
2021/05/08 03:06:10;;;;;;;16.30;3.45;;;;;;;13.18;70.38;99957.92;1719737;82;20943;-42
2021/05/08 03:08:39;;;;;;;9.35;2.72;;;;;;;13.18;70.46;99962.66;1719642;83;21022;-42
2021/05/08 03:11:09;;;;;;;13.18;2.67;;;;;;;13.16;70.71;99957.97;1719614;82;21046;-42
2021/05/08 03:13:40;;;;;;;6.17;2.77;;;;;;;13.15;70.65;99961.94;1719758;83;21094;-42
2021/05/08 03:16:08;;;;;;;20.12;3.45;;;;;;;13.16;70.68;99951.94;1719681;82;20950;-42
2021/05/08 03:18:37;;;;;;;6.00;2.70;;;;;;;13.14;70.81;99949.38;1719737;82;20943;-42
2021/05/08 03:21:05;;;;;;;7.17;3.30;;;;;;;13.11;70.69;99938.24;1719738;83;20919;-42
2021/05/08 03:23:33;;;;;;;12.58;3.12;;;;;;;13.11;70.70;99944.30;1719814;83;21003;-42
2021/05/08 03:26:01;;;;;;;13.60;2.87;;;;;;;13.11;70.71;99940.84;1719770;83;21148;-42
2021/05/08 03:28:29;;;;;;;22.05;3.60;;;;;;;13.15;70.88;99939.84;1719715;83;21082;-42
2021/05/08 03:30:58;;;;;;;11.93;3.62;;;;;;;13.16;70.75;99929.38;1719804;83;21019;-42
2021/05/08 03:33:26;;;;;;;18.80;3.10;;;;;;;13.15;70.87;99944.58;1719788;83;21018;-42
2021/05/08 03:35:55;;;;;;;7.58;2.47;;;;;;;13.18;70.83;99937.96;1719833;83;21635;-41
2021/05/08 03:38:23;;;;;;;13.45;3.40;;;;;;;13.21;70.84;99938.31;1719759;83;21381;-41
2021/05/08 03:40:51;;;;;;;12.90;3.15;;;;;;;13.23;70.61;99942.53;1719785;83;20975;-41
2021/05/08 03:43:18;;;;;;;17.62;3.00;;;;;;;13.23;70.57;99932.13;1712790;83;20908;-41
2021/05/08 03:45:49;;;;;;;9.63;4.03;;;;;;;13.23;70.64;99921.73;1706238;84;21039;-42
2021/05/08 03:48:17;;;;;;;12.00;2.80;;;;;;;13.24;70.57;99912.20;1706253;83;20999;-41
2021/05/08 03:50:45;;;;;;;18.75;3.50;;;;;;;13.27;70.63;99914.69;1684845;84;21319;-41
2021/05/08 03:53:14;;;;;;;15.13;3.20;;;;;;;13.31;70.69;99923.22;1706181;84;21018;-42
2021/05/08 03:55:41;;;;;;;10.78;3.65;;;;;;;13.34;70.67;99929.59;1706232;84;20981;-42
2021/05/08 03:58:09;;;;;;;9.33;3.60;;;;;;;13.36;70.44;99922.59;1706244;82;21627;-42
2021/05/08 04:00:37;;;;;;;11.40;3.05;;;;;;;13.39;70.55;99922.46;1706254;83;21496;-42
2021/05/08 04:03:05;;;;;;;7.95;3.08;;;;;;;13.43;70.52;99926.66;1706204;84;21208;-42
2021/05/08 04:05:33;;;;;;;13.45;2.92;;;;;;;13.46;70.56;99921.34;1706142;82;20975;-42
2021/05/08 04:08:01;;;;;;;10.55;3.40;;;;;;;13.52;70.30;99925.47;1706318;84;20964;-42
2021/05/08 04:10:28;;;;;;;14.85;3.85;;;;;;;13.56;70.25;99908.83;1706242;84;21647;-42
2021/05/08 04:12:57;;;;;;;17.25;3.83;;;;;;;13.62;69.89;99912.95;1706220;83;21548;-41
2021/05/08 04:15:24;;;;;;;23.92;3.80;;;;;;;13.70;69.86;99905.67;1706181;84;21375;-41
2021/05/08 04:17:52;;;;;;;10.20;4.00;;;;;;;13.73;69.47;99901.65;1706163;83;21197;-42
2021/05/08 04:20:20;;;;;;;6.60;3.22;;;;;;;13.79;69.72;99903.16;1706177;84;21019;-41
2021/05/08 04:22:47;;;;;;;3.45;3.08;;;;;;;13.81;69.37;99897.44;1706158;84;20951;-41
2021/05/08 04:25:15;;;;;;;10.25;3.50;;;;;;;13.84;69.31;99899.09;1706218;84;20963;-41
2021/05/08 04:27:43;;;;;;;11.68;3.40;;;;;;;13.88;69.52;99894.97;1706236;84;21222;-41
2021/05/08 04:30:13;;;;;;;10.40;3.98;;;;;;;13.92;69.51;99900.47;1706223;84;20972;-41
2021/05/08 04:32:41;;;;;;;18.05;3.80;;;;;;;13.94;69.40;99889.98;1706300;83;21050;-41
2021/05/08 04:35:10;;;;;;;14.50;3.90;;;;;;;13.96;69.19;99881.66;1706202;84;21007;-41
2021/05/08 04:37:38;;;;;;;13.55;3.80;;;;;;;13.98;69.21;99882.91;1706286;84;20968;-41
2021/05/08 04:40:07;;;;;;;9.18;3.25;;;;;;;14.02;69.41;99877.95;1706219;84;21272;-41
2021/05/08 04:42:34;;;;;;;17.20;4.20;;;;;;;14.05;69.10;99866.97;1706827;83;21038;-42
2021/05/08 04:45:03;;;;;;;16.52;3.50;;;;;;;14.06;69.03;99854.36;1693344;83;21045;-42
2021/05/08 04:47:31;;;;;;;9.88;3.58;;;;;;;14.12;68.99;99840.69;1719736;83;20999;-41
2021/05/08 04:50:00;;;;;;;12.50;4.17;;;;;;;14.18;68.78;99851.69;1719753;83;20943;-42
2021/05/08 04:52:28;;;;;;;14.63;3.58;;;;;;;14.21;68.57;99864.56;1719776;83;21375;-42
2021/05/08 04:54:56;;;;;;;29.37;3.95;;;;;;;14.23;68.61;99860.57;1719667;83;21030;-41
2021/05/08 04:57:23;;;;;;;12.35;3.85;;;;;;;14.27;68.74;99867.33;1719705;83;21015;-41
2021/05/08 04:59:52;;;;;;;27.75;4.25;;;;;;;14.27;68.81;99874.31;1719655;83;21058;-41
2021/05/08 05:02:20;;;;;;;16.95;3.85;;;;;;;14.25;68.71;99883.48;1719806;83;21580;-41
2021/05/08 05:04:48;;;;;;;19.05;3.25;;;;;;;14.25;68.81;99869.63;1719710;82;21047;-41
2021/05/08 05:07:15;;;;;;;12.05;3.95;;;;;;;14.25;68.84;99867.86;1719657;83;20998;-41
2021/05/08 05:09:44;;;;;;;32.20;4.33;;;;;;;14.28;68.76;99870.36;1719720;83;21015;-42
2021/05/08 05:12:13;;;;;;;27.85;4.67;;;;;;;14.28;68.82;99865.15;1719628;82;20995;-41
2021/05/08 05:14:40;;;;;;;12.60;3.70;;;;;;;14.29;68.68;99854.27;1719712;83;21053;-41
2021/05/08 05:17:08;;;;;;;35.05;4.15;;;;;;;14.28;68.73;99858.64;1719756;83;21626;-42
2021/05/08 05:19:36;;;;;;;31.70;5.37;;;;;;;14.28;68.82;99872.95;1719694;83;21026;-41
2021/05/08 05:22:03;;;;;;;21.82;4.58;;;;;;;14.24;68.95;99876.58;1719714;83;20979;-41
2021/05/08 05:24:31;;;;;;;23.70;3.87;;;;;;;14.25;68.99;99884.78;1719668;83;21065;-41
2021/05/08 05:26:59;;;;;;;31.93;3.62;;;;;;;14.21;69.14;99876.27;1719751;83;21473;-41
2021/05/08 05:29:26;;;;;;;34.43;5.35;;;;;;;14.22;69.22;99888.38;1719705;83;21403;-41
2021/05/08 05:31:54;;;;;;;27.77;4.10;;;;;;;14.22;69.27;99881.87;1719691;83;21029;-41
2021/05/08 05:34:22;;;;;;;19.70;4.00;;;;;;;14.21;69.13;99886.69;1719695;83;21034;-41
2021/05/08 05:36:51;;;;;;;29.20;4.30;;;;;;;14.17;69.41;99886.43;1719744;83;21582;-41
2021/05/08 05:39:19;;;;;;;16.23;4.72;;;;;;;14.12;69.49;99889.66;1719842;82;21042;-41
2021/05/08 05:41:47;;;;;;;33.33;4.70;;;;;;;14.11;69.97;99902.75;1719699;83;21206;-41
2021/05/08 05:44:16;;;;;;;49.77;5.15;;;;;;;14.10;70.02;99890.66;1711453;83;21062;-41
2021/05/08 05:46:44;;;;;;;28.67;4.10;;;;;;;14.04;70.11;99895.21;1706151;82;21120;-42
2021/05/08 05:49:12;;;;;;;36.68;4.92;;;;;;;14.00;70.22;99905.80;1706131;84;20955;-41
2021/05/08 05:51:40;;;;;;;48.30;5.47;;;;;;;13.98;70.57;99874.62;1706162;84;21056;-41
2021/05/08 05:54:07;;;;;;;26.00;4.58;;;;;;;13.94;70.79;99879.58;1706118;83;21370;-41
2021/05/08 05:56:35;;;;;;;45.43;6.35;;;;;;;13.90;71.13;99903.59;1706141;84;20936;-41
2021/05/08 05:59:03;;;;;;;13.95;3.98;;;;;;;13.84;71.33;99904.28;1706256;84;20952;-42
2021/05/08 06:01:31;;;;;;;24.23;4.87;;;;;;;13.80;71.71;99912.66;1706087;84;21098;-41
2021/05/08 06:03:58;;;;;;;24.45;4.85;;;;;;;13.76;71.97;99898.92;1706163;82;20900;-42
2021/05/08 06:06:26;;;;;;;59.48;5.67;;;;;;;13.71;72.49;99906.06;1706110;84;21204;-41
2021/05/08 06:08:54;;;;;;;39.40;4.37;;;;;;;13.68;72.71;99900.16;1706013;84;21011;-41
2021/05/08 06:11:21;;;;;;;34.48;4.20;;;;;;;13.65;72.80;99897.22;1706234;84;20983;-41
2021/05/08 06:13:50;;;;;;;44.90;5.00;;;;;;;13.57;73.43;99891.02;1706083;84;20951;-41
2021/05/08 06:16:17;;;;;;;21.00;4.62;;;;;;;13.48;73.70;99893.53;1706222;84;20967;-41
2021/05/08 06:18:47;;;;;;;17.15;3.90;;;;;;;13.42;74.72;99894.22;1706107;84;21023;-41
2021/05/08 06:21:14;;;;;;;7.72;3.50;;;;;;;13.32;75.27;99893.72;1706055;84;20932;-41
2021/05/08 06:23:44;;;;;;;11.65;4.12;;;;;;;13.22;76.41;99893.23;1706028;84;21055;-41
2021/05/08 06:26:11;;;;;;;10.28;3.42;;;;;;;13.13;77.56;99874.07;1706117;84;20947;-42
2021/05/08 06:28:39;;;;;;;12.75;3.70;;;;;;;13.07;78.13;99893.36;1706147;82;21166;-41
2021/05/08 06:31:06;;;;;;;11.03;4.30;;;;;;;13.02;78.87;99901.32;1706136;84;21207;-41
2021/05/08 06:33:34;;;;;;;9.33;4.12;;;;;;;12.96;79.23;99888.56;1706165;84;21043;-41
2021/05/08 06:36:03;;;;;;;7.75;3.72;;;;;;;12.91;79.43;99899.12;1706098;84;21023;-41
2021/05/08 06:38:31;;;;;;;15.85;3.90;;;;;;;12.87;80.13;99888.45;1706198;82;21647;-42
2021/05/08 06:40:59;;;;;;;13.60;4.30;;;;;;;12.83;80.46;99885.58;1706106;83;21000;-41
2021/05/08 06:43:26;;;;;;;9.28;3.62;;;;;;;12.82;81.07;99892.11;1707860;83;21378;-41
2021/05/08 06:45:54;;;;;;;9.70;3.40;;;;;;;12.78;81.28;99892.70;1719597;83;21050;-41
2021/05/08 06:48:23;;;;;;;12.78;3.80;;;;;;;12.74;82.19;99892.39;1719547;83;21021;-41
2021/05/08 06:50:52;;;;;;;10.85;3.50;;;;;;;12.70;82.39;99889.52;1719674;83;21081;-41
2021/05/08 06:53:19;;;;;;;10.88;3.80;;;;;;;12.66;82.63;99896.59;1719635;83;20935;-41
2021/05/08 06:55:47;;;;;;;11.93;3.72;;;;;;;12.63;82.96;99898.83;1719669;83;21376;-41
2021/05/08 06:59:13;;;;;;;11.88;4.80;;;;;;;12.65;83.55;99901.38;1776958;79;22660;-41
2021/05/08 07:01:42;;;;;;;7.80;3.90;;;;;;;12.61;83.79;99911.45;1749392;80;20959;-41
2021/05/08 07:04:12;;;;;;;12.47;4.70;;;;;;;12.61;84.13;99908.42;1745267;81;21202;-42
2021/05/08 07:06:39;;;;;;;10.23;4.37;;;;;;;12.62;84.05;99899.73;1719538;83;21010;-41
2021/05/08 07:09:06;;;;;;;11.45;4.35;;;;;;;12.63;84.13;99918.30;1719613;83;21011;-41
2021/05/08 07:11:35;;;;;;;18.50;4.40;;;;;;;12.67;84.04;99914.30;1719582;83;21053;-41
2021/05/08 07:14:04;;;;;;;11.93;4.78;;;;;;;12.68;84.08;99924.64;1719596;83;21054;-41
2021/05/08 07:16:31;;;;;;;8.58;4.65;;;;;;;12.70;83.94;99931.92;1719620;83;21477;-41
2021/05/08 07:18:59;;;;;;;12.63;4.55;;;;;;;12.71;83.96;99935.34;1719476;83;21019;-41
2021/05/08 07:21:27;;;;;;;16.27;4.42;;;;;;;12.72;84.14;99941.80;1719562;83;20928;-42
2021/05/08 07:23:57;;;;;;;9.00;4.85;;;;;;;12.69;84.44;99937.16;1719478;83;21109;-42
2021/05/08 07:26:24;;;;;;;14.05;4.65;;;;;;;12.66;84.76;99922.55;1719585;83;21085;-42
2021/05/08 07:28:52;;;;;;;11.63;4.47;;;;;;;12.63;84.78;99914.84;1719622;83;21283;-42
2021/05/08 07:31:20;;;;;;;9.48;4.42;;;;;;;12.57;85.49;99917.23;1719554;83;21054;-42
2021/05/08 07:33:48;;;;;;;14.10;4.50;;;;;;;12.51;85.96;99926.53;1719592;83;21018;-42
2021/05/08 07:36:15;;;;;;;19.48;5.45;;;;;;;12.46;86.58;99920.20;1719548;83;21098;-42
2021/05/08 07:38:43;;;;;;;10.30;4.78;;;;;;;12.42;87.42;99921.64;1719542;82;21010;-42
2021/05/08 07:41:11;;;;;;;15.40;5.30;;;;;;;12.39;87.62;99911.38;1719561;82;21355;-42
2021/05/08 07:43:38;;;;;;;15.75;5.17;;;;;;;12.37;88.22;99912.70;1719465;83;21026;-42
2021/05/08 07:46:07;;;;;;;11.80;5.33;;;;;;;12.33;88.45;99923.66;1719580;83;20947;-42
2021/05/08 07:48:35;;;;;;;10.20;5.03;;;;;;;12.32;88.77;99931.49;1719569;83;21010;-42
2021/05/08 07:51:03;;;;;;;14.98;5.30;;;;;;;12.27;89.11;99926.48;1719630;83;20931;-42
2021/05/08 07:53:31;;;;;;;10.72;5.67;;;;;;;12.24;89.50;99920.53;1719541;83;21385;-42
2021/05/08 07:55:58;;;;;;;12.10;5.12;;;;;;;12.24;89.61;99901.08;1719495;82;21129;-42
2021/05/08 07:58:26;;;;;;;10.88;5.50;;;;;;;12.27;89.81;99899.66;1712386;83;21003;-42
2021/05/08 08:00:54;;;;;;;11.10;5.17;;;;;;;12.29;89.99;99898.73;1706794;84;20960;-42
2021/05/08 08:03:21;;;;;;;14.35;5.78;;;;;;;12.32;90.16;99910.30;1706762;83;21074;-42
2021/05/08 08:05:51;;;;;;;11.15;5.72;;;;;;;12.33;90.37;99911.98;1706244;82;21373;-41
2021/05/08 08:08:18;;;;;;;13.38;5.67;;;;;;;12.36;90.51;99921.39;1706697;84;20991;-42
2021/05/08 08:10:46;;;;;;;12.70;5.85;;;;;;;12.37;90.58;99925.69;1706232;82;21074;-42
2021/05/08 08:13:14;;;;;;;11.63;5.60;;;;;;;12.36;90.73;99929.19;1686122;84;21034;-42
2021/05/08 08:15:41;;;;;;;15.30;6.37;;;;;;;12.33;91.09;99935.34;1706294;84;21560;-42
2021/05/08 08:18:09;;;;;;;12.30;5.60;;;;;;;12.30;91.05;99931.56;1706198;84;21261;-42
2021/05/08 08:20:37;;;;;;;14.90;6.35;;;;;;;12.28;91.26;99938.55;1706162;84;21023;-42
2021/05/08 08:23:05;;;;;;;15.53;6.47;;;;;;;12.28;91.46;99937.26;1706204;82;20940;-42
2021/05/08 08:25:33;;;;;;;16.55;6.78;;;;;;;12.30;91.65;99943.67;1706225;83;21054;-42
2021/05/08 08:28:00;;;;;;;15.08;6.35;;;;;;;12.29;92.02;99960.14;1706226;82;21214;-42
2021/05/08 08:30:28;;;;;;;13.90;5.80;;;;;;;12.30;92.21;99969.63;1706217;84;21286;-42
2021/05/08 08:32:56;;;;;;;12.93;6.17;;;;;;;12.28;92.47;99978.77;1706267;84;21087;-42
2021/05/08 08:35:24;;;;;;;14.25;6.28;;;;;;;12.29;92.67;99975.72;1706281;84;21133;-43
2021/05/08 08:37:52;;;;;;;12.45;5.65;;;;;;;12.26;92.86;99972.79;1706200;82;21015;-42
2021/05/08 08:40:21;;;;;;;13.95;6.53;;;;;;;12.25;92.92;99982.77;1686387;82;21027;-43
2021/05/08 08:42:49;;;;;;;12.23;5.95;;;;;;;12.24;93.13;99986.70;1706243;83;21373;-43
2021/05/08 08:45:17;;;;;;;12.90;5.78;;;;;;;12.22;93.35;99999.71;1706140;84;21067;-43
2021/05/08 08:47:45;;;;;;;13.60;5.70;;;;;;;12.20;93.49;99993.73;1706269;84;20960;-41
2021/05/08 08:50:13;;;;;;;15.28;6.47;;;;;;;12.20;93.72;99982.05;1706138;84;20935;-41
2021/05/08 08:52:42;;;;;;;9.70;5.42;;;;;;;12.21;93.84;99980.72;1706256;84;21456;-44
2021/05/08 08:55:11;;;;;;;5.35;4.67;;;;;;;12.28;94.26;99980.07;1706289;83;22345;-43
2021/05/08 08:57:45;;;;;;;8.33;4.83;;;;;;;12.36;94.33;99978.50;1706081;83;21265;-41
2021/05/08 09:00:15;;;;;;;8.33;4.65;;;;;;;12.39;94.39;99977.55;1705693;83;21102;-41
2021/05/08 09:02:49;;;;;;;9.68;5.20;;;;;;;12.41;94.35;99961.48;1644924;87;21082;-41
2021/05/08 09:05:26;;;;;;;12.40;4.90;;;;;;;12.49;94.54;99951.67;1667497;84;21050;-41
2021/05/08 09:07:52;;;;;;;7.72;4.25;;;;;;;12.60;94.76;99946.97;1667251;86;21403;-41
2021/05/08 09:10:34;;;;;;;8.23;3.75;;;;;;;12.76;94.85;99939.95;1667543;86;21058;-41
2021/05/08 09:13:02;;;;;;;5.30;3.45;;;;;;;12.89;94.75;99937.30;1666940;86;21054;-42
2021/05/08 09:15:42;;;;;;;7.75;3.87;;;;;;;12.96;94.40;99943.55;1667609;86;21038;-42
2021/05/08 09:18:34;;;;;;;7.12;3.85;;;;;;;12.98;94.28;99946.94;1667599;86;21087;-42
2021/05/08 09:21:08;;;;;;;8.35;3.67;;;;;;;13.00;94.07;99949.03;1667470;85;21364;-42
2021/05/08 09:23:38;;;;;;;7.15;4.03;;;;;;;13.03;94.03;99952.84;1667486;86;21126;-43
2021/05/08 09:26:11;;;;;;;6.85;3.27;;;;;;;13.04;93.81;99952.77;1667641;86;21565;-42
2021/05/08 09:28:53;;;;;;;4.40;3.35;;;;;;;13.05;93.68;99947.13;1667581;84;20935;-42
2021/05/08 09:31:20;;;;;;;4.00;3.60;;;;;;;13.09;93.67;99950.02;1667576;86;20983;-42
2021/05/08 09:33:52;;;;;;;5.50;3.20;;;;;;;13.21;93.76;99952.61;1667511;86;21404;-43
2021/05/08 09:36:19;;;;;;;4.20;3.00;;;;;;;13.32;93.79;99948.30;1667393;86;21082;-42
2021/05/08 09:38:47;;;;;;;3.08;2.80;;;;;;;13.37;93.49;99943.77;1667483;84;21070;-42
2021/05/08 09:41:16;;;;;;;6.10;2.72;;;;;;;13.40;93.30;99944.95;1667541;86;21076;-42
2021/05/08 09:43:46;;;;;;;2.10;1.50;;;;;;;13.36;93.07;99974.11;1667610;85;21616;-42
2021/05/08 09:46:25;;;;;;;1.30;1.20;;;;;;;13.13;91.91;99987.10;1667581;86;21160;-43
2021/05/08 09:49:20;;;;;;;2.08;1.85;;;;;;;12.59;89.62;99996.34;1667479;86;20988;-43
2021/05/08 09:51:43;;;;;;;1.92;1.72;;;;;;;12.11;89.72;99992.27;1666672;86;21134;-43
2021/05/08 09:54:15;;;;;;;2.12;1.55;;;;;;;11.83;89.90;99997.00;1667468;86;20924;-43
2021/05/08 09:56:49;;;;;;;5.28;2.67;;;;;;;11.56;90.39;100004.73;1667582;85;20943;-42
2021/05/08 09:59:33;;;;;;;5.35;2.95;;;;;;;11.34;91.34;99995.45;1670675;84;21437;-43
2021/05/08 10:02:10;;;;;;;8.55;2.95;;;;;;;11.21;91.98;100013.92;1681674;85;21053;-43
2021/05/08 10:04:57;;;;;;;6.30;3.60;;;;;;;11.12;92.69;100023.25;1672870;84;21026;-42
2021/05/08 10:07:22;;;;;;;6.45;3.00;;;;;;;11.07;92.95;100016.89;1681602;85;20971;-42
2021/05/08 10:09:59;;;;;;;7.33;3.87;;;;;;;11.07;93.26;100026.42;1672827;85;20976;-42
2021/05/08 10:12:28;;;;;;;4.47;4.05;;;;;;;11.07;93.54;100035.48;1682217;85;21370;-43
2021/05/08 10:14:58;;;;;;;4.22;3.83;;;;;;;11.12;93.72;100020.66;1661211;85;21166;-42
2021/05/08 10:17:28;;;;;;;4.40;4.00;;;;;;;11.16;93.75;100027.91;1661314;85;21078;-42
2021/05/08 10:20:08;;;;;;;4.00;3.70;;;;;;;11.15;93.89;100037.88;1661178;86;21017;-42
2021/05/08 10:22:52;;;;;;;3.77;3.47;;;;;;;11.17;94.07;100025.27;1661246;86;21069;-43
2021/05/08 10:25:20;;;;;;;5.67;3.85;;;;;;;11.20;94.05;100013.98;1661188;86;21393;-42
2021/05/08 10:27:48;;;;;;;6.78;3.92;;;;;;;11.35;94.44;100007.52;1661246;86;21061;-42
2021/05/08 10:30:18;;;;;;;12.33;4.20;;;;;;;11.52;94.45;100013.49;1661245;86;20935;-42
2021/05/08 10:32:48;;;;;;;6.42;4.35;;;;;;;11.71;94.63;100016.37;1661216;86;21062;-42
2021/05/08 10:35:37;;;;;;;7.70;4.42;;;;;;;11.96;94.69;100026.00;1661293;86;21002;-42
2021/05/08 10:38:27;;;;;;;5.58;4.95;;;;;;;12.11;94.63;100038.14;1640919;86;21351;-42
2021/05/08 10:41:03;;;;;;;4.70;4.28;;;;;;;12.23;92.93;100042.92;1661220;85;20930;-41
2021/05/08 10:43:48;;;;;;;11.40;4.55;;;;;;;12.25;92.32;100039.00;1661246;86;21117;-42
2021/05/08 10:46:20;;;;;;;12.35;4.12;;;;;;;12.27;91.92;100044.55;1661212;85;20967;-42
2021/05/08 10:49:16;;;;;;;40.98;4.45;;;;;;;12.36;90.72;100055.06;1661253;85;21026;-41
2021/05/08 10:52:01;;;;;;;8.63;3.47;;;;;;;12.38;89.13;100051.13;1661319;86;21053;-42
2021/05/08 10:54:43;;;;;;;6.37;3.37;;;;;;;12.42;88.70;100057.48;1661206;86;21049;-42
2021/05/08 10:57:19;;;;;;;16.70;3.50;;;;;;;12.43;87.89;100055.28;1661240;86;20974;-41
2021/05/08 11:00:08;;;;;;;10.10;3.58;;;;;;;12.47;87.78;100050.81;1659459;85;21590;-41
2021/05/08 11:02:47;;;;;;;10.43;3.15;;;;;;;12.55;87.74;100056.63;1706250;83;21078;-42
2021/05/08 11:05:24;;;;;;;13.43;3.77;;;;;;;12.57;86.30;100057.42;1706069;82;21445;-41
2021/05/08 11:07:52;;;;;;;10.72;3.12;;;;;;;12.65;86.47;100063.20;1706167;84;21079;-42
2021/05/08 11:10:39;;;;;;;10.63;3.12;;;;;;;12.72;85.95;100053.90;1706239;83;21583;-41
2021/05/08 11:13:13;;;;;;;42.48;4.78;;;;;;;12.77;85.81;100053.31;1706217;84;21082;-41
2021/05/08 11:16:03;;;;;;;8.78;2.30;;;;;;;12.91;86.07;100041.98;1706193;84;20959;-41
2021/05/08 11:18:35;;;;;;;4.58;2.10;;;;;;;13.08;85.93;100039.26;1704877;83;21611;-43
2021/05/08 11:21:14;;;;;;;13.10;2.45;;;;;;;13.20;83.26;100030.17;1706226;83;20944;-42
2021/05/08 11:23:57;;;;;;;12.45;2.70;;;;;;;13.42;82.89;100031.53;1706119;84;20940;-41
2021/05/08 11:26:33;;;;;;;24.00;3.27;;;;;;;13.67;82.52;100037.61;1706134;84;20947;-42
2021/05/08 11:29:18;;;;;;;36.03;4.20;;;;;;;13.87;81.06;100036.83;1706377;84;20984;-41
2021/05/08 11:31:56;;;;;;;;;;;;;;;14.21;81.75;100044.60;1708577;84;21351;-42
2021/05/08 11:34:31;;;;;;;12.10;2.77;;;;;;;14.63;80.72;100041.16;1705810;83;20144;-41
2021/05/08 11:37:07;;;;;;;;;;;;;;;14.92;74.77;100039.09;1708706;84;20987;-42
2021/05/08 11:39:43;;;;;;;13.85;2.40;;;;;;;14.98;73.69;100031.92;1706139;82;20148;-42